Time;durP1;ratioP1;P1;durP2;ratioP2;P2;SDS_P1;SDS_P2;PMS_P1;PMS_P2;Temp;Humidity;BMP_temperature;BMP_pressure;BME280_temperature;BME280_humidity;BME280_pressure;Samples;Min_cycle;Max_cycle;Signal;HPM_P1;HPM_P2
2022/06/27 00:01:24;;;;;;;7.68;1.90;;;19.20;93.40;;;;;;5199473;28;20052;-77
2022/06/27 00:03:57;;;;;;;1.90;1.33;;;19.20;93.90;;;;;;5212354;28;20519;-77
2022/06/27 00:06:30;;;;;;;5.03;1.60;;;19.20;94.40;;;;;;5213876;28;20083;-79
2022/06/27 00:09:03;;;;;;;1.83;1.52;;;19.10;95.00;;;;;;5211945;28;20049;-76
2022/06/27 00:11:35;;;;;;;3.90;1.77;;;19.10;95.50;;;;;;5214705;28;20134;-76
2022/06/27 00:14:08;;;;;;;2.20;1.65;;;19.00;95.50;;;;;;5209002;28;20448;-77
2022/06/27 00:16:40;;;;;;;5.07;1.60;;;18.90;95.90;;;;;;5218407;28;20047;-77
2022/06/27 00:19:21;;;;;;;1.58;1.30;;;18.90;96.50;;;;;;5215609;28;20692;-76
2022/06/27 00:21:54;;;;;;;6.03;1.67;;;18.90;96.90;;;;;;5212880;28;20048;-76
2022/06/27 00:24:26;;;;;;;2.90;1.65;;;18.90;97.40;;;;;;5213214;28;20496;-77
2022/06/27 00:26:59;;;;;;;2.15;1.63;;;18.80;98.30;;;;;;5212171;28;20051;-76
2022/06/27 00:29:31;;;;;;;1.85;1.50;;;18.70;99.30;;;;;;5215596;28;20052;-76
2022/06/27 00:32:04;;;;;;;2.05;1.58;;;18.70;99.80;;;;;;5218785;28;20045;-77
2022/06/27 00:34:37;;;;;;;1.70;1.60;;;18.80;99.90;;;;;;5210124;28;20061;-76
2022/06/27 00:37:10;;;;;;;5.03;1.67;;;18.80;99.90;;;;;;5215301;28;20071;-77
2022/06/27 00:39:43;;;;;;;1.88;1.73;;;18.80;99.90;;;;;;5226878;28;20573;-77
2022/06/27 00:42:15;;;;;;;3.73;1.30;;;18.70;99.90;;;;;;5216765;28;20055;-77
2022/06/27 00:44:48;;;;;;;2.28;1.50;;;18.70;99.90;;;;;;5213936;28;20044;-78
2022/06/27 00:47:20;;;;;;;4.90;1.90;;;18.90;99.90;;;;;;5225729;28;20059;-77
2022/06/27 00:49:53;;;;;;;3.55;1.65;;;18.80;99.90;;;;;;5215099;28;20526;-78
2022/06/27 00:52:26;;;;;;;2.65;2.20;;;18.80;99.90;;;;;;5212329;28;20049;-78
2022/06/27 00:54:59;;;;;;;2.03;1.73;;;18.80;99.90;;;;;;5213575;28;20791;-77
2022/06/27 00:57:31;;;;;;;10.68;1.80;;;18.70;99.90;;;;;;5221755;28;20052;-78
2022/06/27 01:00:06;;;;;;;3.42;1.58;;;18.60;99.90;;;;;;5211152;28;20074;-77
2022/06/27 01:02:39;;;;;;;3.05;1.70;;;18.60;99.90;;;;;;5200684;28;20364;-77
2022/06/27 01:05:13;;;;;;;2.25;1.60;;;18.60;99.90;;;;;;5212765;28;20045;-77
2022/06/27 01:07:46;;;;;;;4.55;2.20;;;18.60;99.90;;;;;;5215412;28;20048;-78
2022/06/27 01:10:19;;;;;;;4.47;1.95;;;18.60;99.90;;;;;;5212436;28;20504;-78
2022/06/27 01:12:52;;;;;;;2.90;1.73;;;18.70;99.90;;;;;;5214193;28;20755;-77
2022/06/27 01:15:25;;;;;;;2.70;1.50;;;18.70;99.90;;;;;;5195437;28;20049;-78
2022/06/27 01:17:57;;;;;;;2.63;1.90;;;18.60;99.90;;;;;;5213786;28;20049;-76
2022/06/27 01:20:30;;;;;;;4.77;1.90;;;18.60;99.90;;;;;;5212373;28;20040;-76
2022/06/27 01:23:03;;;;;;;2.10;1.80;;;18.70;99.90;;;;;;5200061;28;20052;-76
2022/06/27 01:25:36;;;;;;;2.58;1.95;;;18.60;99.90;;;;;;5215587;28;20041;-77
2022/06/27 01:28:09;;;;;;;1.93;1.70;;;18.60;99.90;;;;;;5207748;28;21113;-77
2022/06/27 01:30:42;;;;;;;1.67;1.55;;;18.60;99.90;;;;;;5210620;28;20303;-77
2022/06/27 01:33:14;;;;;;;2.08;1.67;;;18.50;99.90;;;;;;5214156;28;20052;-77
2022/06/27 01:35:47;;;;;;;2.33;1.83;;;18.60;99.90;;;;;;5213813;28;20056;-77
2022/06/27 01:38:19;;;;;;;4.32;1.77;;;18.60;99.90;;;;;;5213932;28;20064;-77
2022/06/27 01:40:52;;;;;;;4.07;1.85;;;18.50;99.90;;;;;;5211476;28;20123;-78
2022/06/27 01:43:24;;;;;;;4.20;1.92;;;18.50;99.90;;;;;;5215904;28;20528;-78
2022/06/27 01:45:57;;;;;;;2.30;2.00;;;18.50;99.90;;;;;;5225715;28;20631;-77
2022/06/27 01:48:30;;;;;;;2.35;2.15;;;18.50;99.90;;;;;;5221548;28;20052;-77
2022/06/27 01:51:03;;;;;;;2.55;2.35;;;18.50;99.90;;;;;;5219781;28;20052;-77
2022/06/27 01:53:39;;;;;;;3.22;2.42;;;18.50;99.90;;;;;;5223335;28;20048;-77
2022/06/27 01:56:11;;;;;;;6.78;2.33;;;18.60;99.90;;;;;;5214348;28;20045;-78
2022/06/27 01:58:45;;;;;;;3.58;2.30;;;18.70;99.90;;;;;;5211403;28;20057;-77
2022/06/27 02:01:17;;;;;;;3.45;1.98;;;18.70;99.90;;;;;;5214057;28;20516;-77
2022/06/27 02:03:50;;;;;;;2.33;2.13;;;18.70;99.90;;;;;;5214545;28;20045;-77
2022/06/27 02:06:23;;;;;;;3.42;2.28;;;18.80;99.90;;;;;;5211908;28;20484;-77
2022/06/27 02:08:57;;;;;;;3.10;2.35;;;18.80;99.90;;;;;;5219055;28;20041;-77
2022/06/27 02:11:30;;;;;;;4.18;2.25;;;18.70;99.90;;;;;;5216940;28;20048;-78
2022/06/27 02:14:03;;;;;;;;;;;18.70;99.90;;;;;;5221966;28;20048;-78
2022/06/27 02:16:35;;;;;;;5.20;2.25;;;18.60;99.90;;;;;;5210260;28;20308;-77
2022/06/27 02:19:14;;;;;;;2.38;2.13;;;18.60;99.90;;;;;;5205538;28;21004;-77
2022/06/27 02:21:47;;;;;;;2.40;2.13;;;18.60;99.90;;;;;;5222232;28;20041;-77
2022/06/27 02:24:20;;;;;;;3.08;2.40;;;18.50;99.90;;;;;;5215115;28;20049;-77
2022/06/27 02:26:54;;;;;;;5.00;3.05;;;18.60;99.90;;;;;;5210902;28;20049;-77
2022/06/27 02:29:27;;;;;;;2.80;2.45;;;18.60;99.90;;;;;;5186764;28;20064;-77
2022/06/27 02:32:01;;;;;;;4.00;2.17;;;18.60;99.90;;;;;;5215358;28;20036;-76
2022/06/27 02:34:37;;;;;;;7.28;2.45;;;18.50;99.90;;;;;;5218385;28;20044;-77
2022/06/27 02:37:12;;;;;;;8.55;2.80;;;18.50;99.90;;;;;;5210035;28;20055;-77
2022/06/27 02:39:47;;;;;;;2.45;2.25;;;18.40;99.90;;;;;;5192946;28;20055;-76
2022/06/27 02:42:22;;;;;;;3.33;2.40;;;18.40;99.90;;;;;;5217423;28;20044;-77
2022/06/27 02:44:58;;;;;;;3.40;2.75;;;18.20;99.90;;;;;;5210914;28;20537;-76
2022/06/27 02:47:33;;;;;;;4.07;2.60;;;18.20;99.90;;;;;;5213253;28;20053;-76
2022/06/27 02:50:07;;;;;;;4.35;2.47;;;18.40;99.90;;;;;;5217420;28;20413;-76
2022/06/27 02:52:47;;;;;;;11.27;2.47;;;18.60;99.90;;;;;;5198249;28;20060;-73
2022/06/27 02:55:31;;;;;;;7.80;2.30;;;18.70;99.90;;;;;;5229294;28;20048;-74
2022/06/27 02:58:12;;;;;;;3.17;2.22;;;18.80;99.90;;;;;;5224935;28;20052;-74
2022/06/27 03:00:48;;;;;;;6.28;2.28;;;19.00;99.90;;;;;;5214588;28;20444;-73
2022/06/27 03:03:24;;;;;;;2.30;2.05;;;19.00;99.90;;;;;;5217181;28;21016;-74
2022/06/27 03:06:02;;;;;;;3.42;2.20;;;19.20;99.90;;;;;;5214016;28;20489;-74
2022/06/27 03:08:42;;;;;;;2.40;2.13;;;19.30;99.90;;;;;;5225924;28;20052;-74
2022/06/27 03:11:21;;;;;;;3.22;2.28;;;19.30;99.90;;;;;;5216391;28;20059;-74
2022/06/27 03:13:55;;;;;;;4.38;2.33;;;19.30;99.90;;;;;;5214186;28;20045;-75
2022/06/27 03:16:27;;;;;;;3.72;2.40;;;19.30;99.90;;;;;;5216808;28;20051;-75
2022/06/27 03:19:03;;;;;;;;;;;19.30;99.90;;;;;;5216238;28;20040;-75
2022/06/27 03:21:47;;;;;;;5.10;2.20;;;19.30;99.90;;;;;;5211445;28;19943;-75
2022/06/27 03:24:20;;;;;;;3.83;2.50;;;19.30;99.90;;;;;;5220989;28;20041;-75
2022/06/27 03:26:53;;;;;;;5.07;2.23;;;19.20;99.90;;;;;;5219849;28;20045;-75
2022/06/27 03:29:25;;;;;;;2.53;2.30;;;19.20;99.90;;;;;;5208612;28;20817;-75
2022/06/27 03:32:03;;;;;;;4.35;2.33;;;19.20;99.90;;;;;;5209988;28;20056;-74
2022/06/27 03:34:36;;;;;;;2.50;2.30;;;19.20;99.90;;;;;;5214984;28;20067;-75
2022/06/27 03:37:21;;;;;;;3.10;2.10;;;19.20;99.90;;;;;;5214269;28;20068;-74
2022/06/27 03:39:53;;;;;;;2.70;2.05;;;19.20;99.90;;;;;;5217796;28;20037;-74
2022/06/27 03:42:26;;;;;;;2.45;2.17;;;19.20;99.90;;;;;;5211120;28;20444;-74
2022/06/27 03:44:59;;;;;;;;;;;19.20;99.90;;;;;;5205713;28;20064;-74
2022/06/27 03:47:51;;;;;;;3.50;2.38;;;19.10;99.90;;;;;;5209497;28;19928;-74
2022/06/27 03:50:38;;;;;;;3.78;2.08;;;19.10;99.90;;;;;;5216180;28;20051;-74
2022/06/27 03:53:13;;;;;;;2.63;2.10;;;19.10;99.90;;;;;;5221578;28;20037;-74
2022/06/27 03:55:45;;;;;;;3.63;2.55;;;19.20;99.90;;;;;;5217414;28;20279;-74
2022/06/27 03:58:18;;;;;;;6.93;2.40;;;19.10;99.90;;;;;;5207397;28;20056;-74
2022/06/27 04:00:51;;;;;;;2.60;2.40;;;19.10;99.90;;;;;;5203409;28;20064;-74
2022/06/27 04:03:23;;;;;;;2.55;2.35;;;19.10;99.90;;;;;;5215310;28;20048;-74
2022/06/27 04:05:59;;;;;;;2.83;2.53;;;19.10;99.90;;;;;;5222620;28;20048;-74
2022/06/27 04:08:32;;;;;;;4.07;2.28;;;19.10;99.90;;;;;;5218620;28;20517;-74
2022/06/27 04:11:04;;;;;;;5.88;2.10;;;19.10;99.90;;;;;;5223191;28;20048;-75
2022/06/27 04:13:40;;;;;;;2.35;2.15;;;19.20;99.90;;;;;;5205681;28;20061;-74
2022/06/27 04:16:35;;;;;;;5.35;2.50;;;19.30;99.90;;;;;;5219081;28;20553;-74
2022/06/27 04:19:28;;;;;;;5.75;2.72;;;19.30;99.90;;;;;;5218623;28;20036;-74
2022/06/27 04:22:19;;;;;;;3.72;2.45;;;19.30;99.90;;;;;;5219205;28;20060;-74
2022/06/27 04:25:15;;;;;;;3.80;2.13;;;19.40;99.90;;;;;;5220209;28;20048;-74
2022/06/27 04:27:51;;;;;;;3.53;2.65;;;19.40;99.90;;;;;;5219552;28;20053;-74
2022/06/27 04:30:25;;;;;;;3.40;2.08;;;19.40;99.90;;;;;;5220612;28;20521;-74
2022/06/27 04:32:58;;;;;;;;;;;19.40;99.90;;;;;;5222287;28;20512;-74
2022/06/27 04:35:31;;;;;;;3.08;2.33;;;19.40;99.90;;;;;;5222739;28;19932;-74
2022/06/27 04:38:05;;;;;;;11.50;2.90;;;19.50;99.90;;;;;;5212795;28;20067;-74
2022/06/27 04:41:02;;;;;;;4.43;2.65;;;19.50;99.90;;;;;;5215731;28;20052;-74
2022/06/27 04:43:37;;;;;;;3.85;2.47;;;19.50;99.90;;;;;;5212908;28;21959;-74
2022/06/27 04:46:10;;;;;;;3.72;2.30;;;19.60;99.90;;;;;;5214762;28;20044;-74
2022/06/27 04:49:02;;;;;;;4.53;2.65;;;19.60;99.90;;;;;;5213440;28;20049;-74
2022/06/27 04:51:35;;;;;;;2.70;2.40;;;19.60;99.90;;;;;;5220262;28;20063;-74
2022/06/27 04:54:08;;;;;;;3.80;2.33;;;19.70;99.90;;;;;;5219571;28;20063;-75
2022/06/27 04:56:43;;;;;;;3.97;2.20;;;19.70;99.90;;;;;;5217748;28;20049;-74
2022/06/27 04:59:16;;;;;;;4.97;2.70;;;19.70;99.90;;;;;;5217722;28;20041;-74
2022/06/27 05:01:53;;;;;;;3.45;2.25;;;19.80;99.90;;;;;;5204141;28;20060;-74
2022/06/27 05:04:28;;;;;;;3.10;2.60;;;19.90;99.90;;;;;;5193748;28;20048;-75
2022/06/27 05:07:01;;;;;;;2.88;2.50;;;20.00;99.90;;;;;;5215626;28;20052;-74
2022/06/27 05:09:34;;;;;;;3.93;2.77;;;20.00;99.90;;;;;;5212622;28;20048;-74
2022/06/27 05:12:07;;;;;;;5.68;2.22;;;20.10;99.90;;;;;;5210681;28;20939;-74
2022/06/27 05:14:39;;;;;;;4.83;2.60;;;20.10;99.90;;;;;;5209613;28;20064;-74
2022/06/27 05:17:14;;;;;;;5.38;2.70;;;20.10;99.90;;;;;;5205934;28;20064;-74
2022/06/27 05:19:46;;;;;;;2.90;2.60;;;20.20;99.90;;;;;;5206964;28;20528;-75
2022/06/27 05:22:19;;;;;;;3.87;2.40;;;20.20;99.90;;;;;;5199481;28;20060;-74
2022/06/27 05:24:52;;;;;;;4.13;3.15;;;20.30;99.90;;;;;;5209591;28;20559;-74
2022/06/27 05:27:24;;;;;;;3.28;2.42;;;20.30;99.90;;;;;;5206124;28;20044;-74
2022/06/27 05:29:57;;;;;;;3.17;2.50;;;20.40;99.90;;;;;;5212701;28;20048;-74
2022/06/27 05:32:30;;;;;;;3.08;2.75;;;20.40;99.90;;;;;;5208256;28;20041;-73
2022/06/27 05:35:04;;;;;;;6.47;2.83;;;20.50;99.90;;;;;;5213527;28;20048;-74
2022/06/27 05:37:38;;;;;;;3.78;2.17;;;20.50;99.90;;;;;;5218873;28;20037;-74
2022/06/27 05:40:13;;;;;;;4.20;2.75;;;20.60;99.90;;;;;;5191847;28;20048;-74
2022/06/27 05:42:47;;;;;;;3.08;2.83;;;20.70;99.70;;;;;;5206146;28;20045;-74
2022/06/27 05:45:21;;;;;;;3.83;2.70;;;20.70;99.30;;;;;;5207044;28;20052;-74
2022/06/27 05:48:14;;;;;;;6.43;2.60;;;20.80;98.60;;;;;;5212107;28;20052;-74
2022/06/27 05:51:02;;;;;;;3.70;2.75;;;20.90;98.20;;;;;;5220845;28;20416;-74
2022/06/27 05:53:34;;;;;;;;;;;20.90;98.00;;;;;;5209858;28;20044;-74
2022/06/27 05:56:07;;;;;;;5.55;2.80;;;21.00;98.10;;;;;;5209063;28;19928;-74
2022/06/27 05:58:41;;;;;;;4.70;2.83;;;21.10;97.80;;;;;;5211444;28;20045;-74
2022/06/27 06:01:14;;;;;;;6.45;2.83;;;21.20;98.20;;;;;;5226229;28;20579;-74
2022/06/27 06:03:47;;;;;;;4.82;2.53;;;21.20;97.70;;;;;;5226541;28;20040;-74
2022/06/27 06:06:20;;;;;;;3.80;3.10;;;21.40;97.70;;;;;;5217897;28;20051;-74
2022/06/27 06:08:53;;;;;;;3.65;2.58;;;21.50;96.90;;;;;;5219429;28;20055;-74
2022/06/27 06:11:27;;;;;;;;;;;21.60;96.50;;;;;;5219427;28;20053;-73
2022/06/27 06:13:59;;;;;;;3.85;2.50;;;21.60;95.40;;;;;;5227680;28;19931;-74
2022/06/27 06:16:33;;;;;;;5.15;3.15;;;21.50;95.20;;;;;;5219185;28;20049;-73
2022/06/27 06:19:06;;;;;;;5.10;2.60;;;21.60;95.60;;;;;;5226511;28;20040;-73
2022/06/27 06:21:39;;;;;;;4.03;3.13;;;21.80;95.00;;;;;;5219810;28;20565;-73
2022/06/27 06:24:11;;;;;;;6.10;3.00;;;22.00;94.90;;;;;;5226669;28;20052;-74
2022/06/27 06:26:45;;;;;;;4.18;3.00;;;22.10;93.20;;;;;;5235472;28;20520;-74
2022/06/27 06:29:21;;;;;;;5.47;3.03;;;22.20;92.70;;;;;;5222305;28;20049;-74
2022/06/27 06:31:58;;;;;;;4.20;3.10;;;22.20;92.80;;;;;;5226665;28;20554;-74
2022/06/27 06:34:38;;;;;;;3.60;2.65;;;22.40;92.40;;;;;;5221486;28;20041;-74
2022/06/27 06:37:11;;;;;;;3.88;3.03;;;22.50;92.50;;;;;;5227281;28;20052;-73
2022/06/27 06:39:47;;;;;;;9.65;3.10;;;22.60;91.60;;;;;;5243014;28;20037;-74
2022/06/27 06:42:20;;;;;;;3.00;2.72;;;22.70;91.80;;;;;;5217018;28;21066;-74
2022/06/27 06:45:13;;;;;;;5.70;2.80;;;22.80;91.30;;;;;;5224542;28;20044;-74
2022/06/27 06:48:05;;;;;;;3.80;2.60;;;23.00;91.40;;;;;;5222712;28;20049;-74
2022/06/27 06:50:38;;;;;;;5.73;2.80;;;23.10;90.70;;;;;;5222646;28;20044;-74
2022/06/27 06:53:11;;;;;;;7.20;2.90;;;23.20;91.30;;;;;;5224043;28;20040;-73
2022/06/27 06:55:44;;;;;;;4.77;3.50;;;23.30;90.60;;;;;;5221923;28;20044;-74
2022/06/27 06:58:17;;;;;;;4.72;2.67;;;23.40;91.00;;;;;;5222722;28;20052;-74
2022/06/27 07:00:50;;;;;;;3.55;2.67;;;23.60;89.20;;;;;;5218103;28;20424;-75
2022/06/27 07:03:24;;;;;;;3.80;2.63;;;23.70;87.80;;;;;;5217979;28;20055;-74
2022/06/27 07:05:58;;;;;;;7.07;2.60;;;23.80;87.50;;;;;;5219412;28;20666;-74
2022/06/27 07:08:30;;;;;;;;;;;23.80;88.60;;;;;;5216627;28;20052;-74
2022/06/27 07:11:03;;;;;;;5.10;2.70;;;23.80;89.50;;;;;;5217741;28;19948;-74
2022/06/27 07:13:37;;;;;;;4.22;2.63;;;23.90;87.40;;;;;;5217636;28;20040;-75
2022/06/27 07:16:10;;;;;;;3.53;2.80;;;24.10;86.90;;;;;;5215778;28;20049;-74
2022/06/27 07:18:43;;;;;;;3.63;2.60;;;24.10;86.00;;;;;;5215491;28;20045;-74
2022/06/27 07:21:17;;;;;;;6.97;2.90;;;24.20;86.00;;;;;;5214825;28;20039;-74
2022/06/27 07:23:50;;;;;;;2.67;2.45;;;24.30;86.50;;;;;;5222059;28;20056;-74
2022/06/27 07:26:23;;;;;;;;;;;24.30;85.30;;;;;;5212169;28;20497;-73
2022/06/27 07:28:57;;;;;;;6.28;2.83;;;24.40;85.00;;;;;;5162375;28;19928;-75
2022/06/27 07:31:30;;;;;;;8.18;2.50;;;24.50;84.90;;;;;;5168791;28;20432;-75
2022/06/27 07:34:08;;;;;;;4.28;2.85;;;24.60;83.90;;;;;;5166272;28;20054;-74
2022/06/27 07:36:41;;;;;;;4.93;2.58;;;24.70;83.30;;;;;;5164240;28;20508;-75
2022/06/27 07:39:14;;;;;;;3.25;2.42;;;24.60;82.80;;;;;;5135454;28;20046;-75
2022/06/27 07:41:49;;;;;;;3.05;2.80;;;24.60;82.40;;;;;;5166509;28;20597;-73
2022/06/27 07:44:22;;;;;;;3.70;2.40;;;24.50;82.90;;;;;;5162878;28;20049;-75
2022/06/27 07:46:56;;;;;;;2.90;2.70;;;24.60;83.60;;;;;;5166850;28;20402;-74
2022/06/27 07:49:28;;;;;;;6.00;2.92;;;24.60;83.60;;;;;;5185889;28;20046;-75
2022/06/27 07:52:02;;;;;;;4.80;2.55;;;24.80;85.30;;;;;;5170508;28;20049;-74
2022/06/27 07:54:34;;;;;;;2.70;2.50;;;25.10;82.50;;;;;;5157150;28;20053;-75
2022/06/27 07:57:06;;;;;;;5.50;2.60;;;25.10;81.00;;;;;;5173933;28;20309;-74
2022/06/27 07:59:39;;;;;;;4.27;2.50;;;25.10;80.70;;;;;;5149381;28;20421;-74
2022/06/27 08:02:11;;;;;;;3.40;2.40;;;25.10;81.10;;;;;;5168902;28;20037;-74
2022/06/27 08:04:44;;;;;;;3.73;2.50;;;25.40;80.80;;;;;;5167389;28;20043;-75
2022/06/27 08:07:17;;;;;;;6.03;2.60;;;25.50;81.30;;;;;;5167932;28;21031;-74
2022/06/27 08:09:49;;;;;;;5.50;2.42;;;25.60;79.70;;;;;;5158915;28;20046;-75
2022/06/27 08:12:22;;;;;;;3.47;2.75;;;25.70;78.40;;;;;;5165290;28;20512;-73
2022/06/27 08:14:55;;;;;;;6.47;2.40;;;25.90;79.40;;;;;;5163643;28;20061;-74
2022/06/27 08:17:27;;;;;;;4.57;2.70;;;26.20;79.10;;;;;;5161916;28;20053;-74
2022/06/27 08:20:00;;;;;;;8.25;2.70;;;26.10;79.20;;;;;;5160144;28;20048;-74
2022/06/27 08:22:32;;;;;;;4.78;2.70;;;26.30;77.30;;;;;;5163513;28;20042;-75
2022/06/27 08:25:05;;;;;;;3.38;2.50;;;26.30;77.80;;;;;;5162755;28;20060;-74
2022/06/27 08:27:38;;;;;;;4.97;2.58;;;26.20;75.30;;;;;;5152936;28;20046;-74
2022/06/27 08:30:14;;;;;;;3.28;2.55;;;26.20;75.90;;;;;;5166030;28;20045;-74
2022/06/27 08:32:47;;;;;;;5.43;2.80;;;26.30;76.50;;;;;;5166418;28;20060;-74
2022/06/27 08:35:20;;;;;;;4.40;2.63;;;26.40;76.20;;;;;;5165658;28;20057;-74
2022/06/27 08:37:54;;;;;;;3.45;2.72;;;26.30;76.00;;;;;;5165877;28;20054;-74
2022/06/27 08:40:27;;;;;;;8.60;3.28;;;26.40;76.60;;;;;;5158128;28;21277;-75
2022/06/27 08:43:00;;;;;;;5.72;2.65;;;26.40;77.60;;;;;;5166610;28;20735;-74
2022/06/27 08:45:34;;;;;;;3.83;2.35;;;26.50;75.60;;;;;;5169857;28;20941;-74
2022/06/27 08:48:07;;;;;;;4.65;2.83;;;26.60;76.40;;;;;;5176155;28;20053;-74
2022/06/27 08:50:40;;;;;;;5.40;2.92;;;26.80;76.10;;;;;;5157385;28;20050;-75
2022/06/27 08:53:14;;;;;;;4.40;2.40;;;27.00;74.80;;;;;;5170115;28;20584;-74
2022/06/27 08:55:47;;;;;;;9.40;2.58;;;27.00;76.00;;;;;;5169001;28;20097;-74
2022/06/27 08:58:23;;;;;;;5.90;2.50;;;27.00;74.00;;;;;;5170050;28;20053;-74
2022/06/27 09:00:56;;;;;;;4.55;2.10;;;27.10;75.60;;;;;;5170584;28;20902;-74
2022/06/27 09:03:30;;;;;;;4.20;2.13;;;27.20;73.30;;;;;;5171197;28;20422;-74
2022/06/27 09:06:08;;;;;;;8.70;2.97;;;27.30;72.10;;;;;;5168698;28;20041;-74
2022/06/27 09:09:03;;;;;;;2.72;2.50;;;27.50;72.80;;;;;;5168593;28;20042;-74
2022/06/27 09:11:44;;;;;;;4.05;2.40;;;27.40;71.30;;;;;;5170033;28;20061;-74
2022/06/27 09:14:39;;;;;;;3.92;2.30;;;27.50;72.00;;;;;;5166663;28;20936;-74
2022/06/27 09:17:15;;;;;;;5.70;2.55;;;27.50;70.60;;;;;;5160897;28;20042;-73
2022/06/27 09:19:50;;;;;;;4.38;2.50;;;27.60;71.50;;;;;;5158454;28;20144;-74
2022/06/27 09:22:25;;;;;;;2.90;2.60;;;27.60;70.60;;;;;;5159378;28;20046;-74
2022/06/27 09:24:59;;;;;;;3.10;2.70;;;27.60;70.60;;;;;;5170404;28;20045;-74
2022/06/27 09:27:38;;;;;;;3.22;2.80;;;27.70;71.50;;;;;;5168736;28;20565;-72
2022/06/27 09:30:22;;;;;;;5.47;2.80;;;27.80;72.00;;;;;;5161390;28;20633;-74
2022/06/27 09:32:59;;;;;;;3.92;2.80;;;27.80;71.90;;;;;;5156715;28;20058;-74
2022/06/27 09:35:36;;;;;;;3.30;2.40;;;28.00;70.90;;;;;;5158520;28;20050;-74
2022/06/27 09:38:10;;;;;;;5.78;2.70;;;28.00;71.20;;;;;;5164667;28;20416;-74
2022/06/27 09:40:44;;;;;;;11.02;2.75;;;28.00;71.00;;;;;;5160354;28;21000;-73
2022/06/27 09:43:22;;;;;;;5.93;2.67;;;28.10;70.80;;;;;;5165544;28;20041;-74
2022/06/27 09:45:55;;;;;;;5.53;2.72;;;28.20;69.40;;;;;;5160371;28;20048;-74
2022/06/27 09:48:30;;;;;;;5.13;2.67;;;28.30;69.40;;;;;;5184354;28;20049;-74
2022/06/27 09:51:04;;;;;;;9.63;2.88;;;28.40;67.90;;;;;;5170056;28;20050;-74
2022/06/27 09:53:47;;;;;;;3.92;2.30;;;28.40;67.30;;;;;;5159172;28;20633;-75
2022/06/27 09:56:20;;;;;;;7.40;2.83;;;28.40;68.20;;;;;;5168166;28;20062;-74
2022/06/27 09:58:53;;;;;;;5.80;3.33;;;28.50;66.90;;;;;;5166793;28;20060;-74
2022/06/27 10:01:43;;;;;;;6.72;2.45;;;28.40;67.00;;;;;;5161606;28;20896;-74
2022/06/27 10:04:17;;;;;;;2.90;2.20;;;28.60;67.00;;;;;;5166387;28;20053;-73
2022/06/27 10:06:51;;;;;;;6.45;2.35;;;28.70;67.60;;;;;;5163488;28;20046;-75
2022/06/27 10:09:25;;;;;;;4.38;2.70;;;28.80;66.20;;;;;;5168380;28;20037;-73
2022/06/27 10:12:23;;;;;;;4.80;2.60;;;28.80;66.60;;;;;;5163870;28;20072;-74
2022/06/27 10:15:11;;;;;;;8.80;2.75;;;28.90;67.20;;;;;;5172984;28;20058;-73
2022/06/27 10:17:46;;;;;;;4.88;2.70;;;28.90;66.80;;;;;;5162230;28;20050;-74
2022/06/27 10:20:37;;;;;;;3.38;2.80;;;28.90;66.60;;;;;;5160974;28;20058;-74
2022/06/27 10:23:09;;;;;;;5.18;3.25;;;29.00;67.90;;;;;;5150255;28;20428;-74
2022/06/27 10:25:44;;;;;;;4.10;3.60;;;29.30;67.70;;;;;;5164495;28;20421;-73
2022/06/27 10:28:18;;;;;;;7.68;3.25;;;29.50;67.10;;;;;;5166317;28;20521;-74
2022/06/27 10:30:58;;;;;;;10.50;3.17;;;29.70;68.60;;;;;;5165784;28;20045;-74
2022/06/27 10:33:30;;;;;;;6.50;3.33;;;30.00;67.90;;;;;;5149187;28;20058;-74
2022/06/27 10:36:14;;;;;;;6.20;3.22;;;30.20;65.60;;;;;;5163807;28;20049;-75
2022/06/27 10:38:49;;;;;;;9.60;3.25;;;30.30;66.10;;;;;;5165597;28;20065;-74
2022/06/27 10:41:23;;;;;;;9.20;3.72;;;30.60;66.70;;;;;;5148625;28;20038;-73
2022/06/27 10:43:56;;;;;;;6.28;2.95;;;30.80;65.20;;;;;;5166293;28;20046;-74
2022/06/27 10:46:37;;;;;;;5.47;3.13;;;31.10;65.20;;;;;;5169178;28;20038;-75
2022/06/27 10:49:21;;;;;;;10.23;2.50;;;31.20;63.70;;;;;;5164686;28;20046;-74
2022/06/27 10:52:21;;;;;;;7.00;3.15;;;31.10;64.00;;;;;;5160401;28;20057;-74
2022/06/27 10:54:54;;;;;;;4.95;2.67;;;31.30;62.00;;;;;;5158521;28;20065;-74
2022/06/27 10:57:40;;;;;;;8.15;2.85;;;31.50;63.80;;;;;;5166183;28;20049;-74
2022/06/27 11:00:36;;;;;;;4.50;2.88;;;31.60;61.40;;;;;;5160623;28;20064;-74
2022/06/27 11:03:23;;;;;;;5.68;3.10;;;31.60;59.40;;;;;;5151504;28;20057;-74
2022/06/27 11:06:00;;;;;;;6.90;2.55;;;31.30;60.70;;;;;;5144261;28;20046;-74
2022/06/27 11:08:37;;;;;;;6.95;3.13;;;31.10;61.80;;;;;;5155497;28;20050;-73
2022/06/27 11:11:20;;;;;;;7.40;2.70;;;31.50;62.30;;;;;;5165939;28;20049;-74
2022/06/27 11:13:55;;;;;;;3.53;2.45;;;32.00;60.20;;;;;;5161533;28;20046;-74
2022/06/27 11:16:31;;;;;;;5.68;2.83;;;32.30;59.70;;;;;;5169075;28;20513;-74
2022/06/27 11:21:57;;;;;;;3.47;2.70;;;32.70;59.00;;;;;;5143531;28;20069;-75
2022/06/27 11:24:32;;;;;;;4.80;2.42;;;32.80;58.20;;;;;;5144853;28;20065;-73
2022/06/27 11:27:05;;;;;;;6.30;2.63;;;33.10;59.20;;;;;;5155382;28;20490;-75
2022/06/27 11:32:29;;;;;;;14.55;3.38;;;33.30;58.70;;;;;;5168102;28;20053;-75
2022/06/27 11:35:01;;;;;;;5.60;2.67;;;33.50;59.60;;;;;;5158104;28;20046;-73
2022/06/27 11:37:34;;;;;;;4.82;2.75;;;33.60;59.50;;;;;;5163218;28;20049;-74
2022/06/27 11:40:08;;;;;;;5.75;2.70;;;33.60;59.00;;;;;;5162417;28;21217;-74
2022/06/27 11:42:42;;;;;;;7.53;3.00;;;33.70;59.10;;;;;;5156460;28;20062;-74
2022/06/27 11:45:15;;;;;;;8.57;3.10;;;33.90;58.30;;;;;;5180531;28;20049;-73
2022/06/27 11:47:48;;;;;;;5.43;3.08;;;33.70;59.70;;;;;;5162392;28;20060;-75
2022/06/27 11:50:21;;;;;;;10.32;3.00;;;33.90;58.60;;;;;;5141541;28;20058;-74
2022/06/27 11:52:54;;;;;;;9.50;2.83;;;34.10;58.80;;;;;;5154084;28;20049;-75
2022/06/27 11:55:26;;;;;;;4.57;2.97;;;34.10;59.00;;;;;;5137826;28;20049;-73
2022/06/27 11:58:00;;;;;;;7.05;3.22;;;34.30;58.80;;;;;;5153233;28;20050;-75
2022/06/27 12:00:34;;;;;;;5.97;2.85;;;34.40;57.70;;;;;;5145057;28;20076;-74
2022/06/27 12:03:13;;;;;;;6.60;2.88;;;34.70;57.70;;;;;;5150715;28;20045;-75
2022/06/27 12:05:47;;;;;;;8.82;3.05;;;34.80;56.30;;;;;;5142634;28;20520;-74
2022/06/27 12:08:21;;;;;;;5.28;2.58;;;34.80;56.90;;;;;;5149836;28;21805;-74
2022/06/27 12:11:17;;;;;;;;;;;34.90;56.10;;;;;;5131585;28;20069;-74
2022/06/27 12:13:57;;;;;;;8.80;3.05;;;35.00;55.90;;;;;;5146285;28;19929;-74
2022/06/27 12:16:44;;;;;;;7.15;2.97;;;34.90;55.60;;;;;;5117269;28;20049;-74
2022/06/27 12:19:18;;;;;;;6.82;2.95;;;34.70;55.00;;;;;;5132158;28;20053;-74
2022/06/27 12:21:50;;;;;;;;;;;34.90;56.40;;;;;;5129101;28;20050;-75
2022/06/27 12:24:23;;;;;;;7.78;3.30;;;34.90;55.20;;;;;;5159227;28;19925;-73
2022/06/27 12:26:56;;;;;;;7.22;3.00;;;34.80;54.70;;;;;;5179610;28;20045;-74
2022/06/27 12:29:29;;;;;;;7.20;3.08;;;34.80;54.70;;;;;;5151363;28;20491;-73
2022/06/27 12:32:02;;;;;;;5.32;2.80;;;35.10;54.60;;;;;;5180136;28;20056;-74
2022/06/27 12:34:34;;;;;;;;;;;35.30;53.30;;;;;;5161494;28;20843;-74
2022/06/27 12:37:07;;;;;;;10.65;2.83;;;35.30;53.20;;;;;;5167768;28;19925;-74
2022/06/27 12:39:40;;;;;;;8.30;2.78;;;35.10;53.20;;;;;;5158370;28;20461;-75
2022/06/27 12:42:12;;;;;;;;;;;35.30;52.70;;;;;;5163063;28;20042;-75
2022/06/27 12:44:45;;;;;;;3.47;2.83;;;35.10;52.70;;;;;;5152601;28;19925;-74
2022/06/27 12:47:17;;;;;;;4.90;2.85;;;35.00;52.50;;;;;;5159032;28;20048;-74
2022/06/27 12:49:50;;;;;;;4.70;2.58;;;35.30;53.60;;;;;;5142774;28;20050;-74
2022/06/27 12:52:22;;;;;;;5.22;2.95;;;35.30;52.70;;;;;;5136169;28;20046;-75
2022/06/27 12:54:55;;;;;;;6.32;3.05;;;35.60;51.80;;;;;;5125120;28;20380;-74
2022/06/27 12:57:28;;;;;;;7.20;2.88;;;35.70;52.60;;;;;;5155342;28;20058;-74
2022/06/27 13:00:06;;;;;;;10.15;3.13;;;36.00;51.10;;;;;;5142241;28;20072;-75
2022/06/27 13:02:38;;;;;;;6.75;2.90;;;36.30;50.80;;;;;;5153859;28;20729;-73
2022/06/27 13:05:12;;;;;;;5.25;2.70;;;36.10;49.50;;;;;;5151058;28;20504;-74
2022/06/27 13:07:44;;;;;;;6.57;2.72;;;36.20;48.40;;;;;;5153650;28;20050;-75
2022/06/27 13:10:17;;;;;;;7.53;2.60;;;35.70;48.70;;;;;;5145037;28;20057;-75
2022/06/27 13:12:50;;;;;;;12.40;3.10;;;35.80;49.30;;;;;;5160445;28;20053;-74
2022/06/27 13:15:22;;;;;;;;;;;35.80;49.30;;;;;;5161153;28;20061;-74
2022/06/27 13:17:55;;;;;;;12.25;3.33;;;35.90;51.10;;;;;;5159486;28;19936;-74
2022/06/27 13:20:28;;;;;;;;;;;36.00;51.30;;;;;;5161190;28;20053;-74
2022/06/27 13:23:01;;;;;;;11.67;3.23;;;35.60;50.00;;;;;;5167882;28;21699;-75
2022/06/27 13:25:34;;;;;;;7.35;2.92;;;35.60;51.20;;;;;;5152947;28;20049;-75
2022/06/27 13:28:07;;;;;;;3.80;2.70;;;36.00;50.80;;;;;;5133246;28;20050;-75
2022/06/27 13:30:41;;;;;;;5.32;2.90;;;35.80;50.20;;;;;;5158720;28;20061;-74
2022/06/27 13:33:14;;;;;;;;;;;36.10;51.00;;;;;;5173707;28;20041;-74
2022/06/27 15:31:47;;;;;;;2.83;1.83;;;30.80;60.30;;;;;;5155770;28;20041;-75
2022/06/27 15:34:20;;;;;;;5.43;2.00;;;30.40;61.00;;;;;;5184263;28;20041;-72